createdAt,value
2019-04-04T00:01:55.894Z,99926.16
2019-04-04T00:04:24.522Z,99928.48
2019-04-04T00:06:53.412Z,99927.31
2019-04-04T00:09:21.992Z,99928.27
2019-04-04T00:11:50.530Z,99913.91
2019-04-04T00:14:19.472Z,99904.66
2019-04-04T00:16:48.835Z,99899.08
2019-04-04T00:19:18.178Z,99894.09
2019-04-04T00:21:46.770Z,99881.16
2019-04-04T00:24:15.443Z,99886.84
2019-04-04T00:26:44.030Z,99872.06
2019-04-04T00:29:13.017Z,99886.34
2019-04-04T00:31:41.812Z,99895.09
2019-04-04T00:34:10.348Z,99912.13
2019-04-04T00:36:38.903Z,99895.63
2019-04-04T00:39:09.537Z,99896.42
2019-04-04T00:41:38.709Z,99872.95
2019-04-04T00:44:07.905Z,99823.55
2019-04-04T00:46:36.455Z,99787.12
2019-04-04T00:49:05.458Z,99790.20
2019-04-04T00:51:34.276Z,99792.33
2019-04-04T00:54:03.264Z,99792.79
2019-04-04T00:56:32.176Z,99808.16
2019-04-04T00:59:00.964Z,99825.49
2019-04-04T01:01:29.475Z,99848.77
2019-04-04T01:04:00.344Z,99846.48
2019-04-04T01:06:29.179Z,99853.65
2019-04-04T01:08:57.763Z,99847.13
2019-04-04T01:11:26.319Z,99826.89
2019-04-04T01:13:57.561Z,99822.80
2019-04-04T01:16:25.337Z,99826.84
2019-04-04T01:18:53.921Z,99829.08
2019-04-04T01:21:22.916Z,99837.42
2019-04-04T01:23:51.615Z,99837.80
2019-04-04T01:26:22.538Z,99846.77
2019-04-04T01:28:51.220Z,99848.80
2019-04-04T01:31:20.006Z,99851.94
2019-04-04T01:33:50.836Z,99852.45
2019-04-04T01:36:19.337Z,99850.61
2019-04-04T01:38:47.911Z,99836.22
2019-04-04T01:41:16.808Z,99838.76
2019-04-04T01:43:45.490Z,99825.97
2019-04-04T01:46:15.283Z,99809.73
2019-04-04T01:48:44.400Z,99792.47
2019-04-04T01:51:13.389Z,99783.39
2019-04-04T01:53:41.978Z,99772.31
2019-04-04T01:56:10.555Z,99766.38
2019-04-04T01:58:41.687Z,99757.78
2019-04-04T02:01:09.668Z,99769.41
2019-04-04T02:03:38.265Z,99774.22
2019-04-04T02:06:07.146Z,99774.34
2019-04-04T02:08:36.153Z,99778.63
2019-04-04T02:11:05.534Z,99770.88
2019-04-04T02:13:34.942Z,99765.42
2019-04-04T02:16:03.530Z,99762.98
2019-04-04T02:18:32.534Z,99761.02
2019-04-04T02:21:01.217Z,99764.89
2019-04-04T02:23:31.715Z,99766.91
2019-04-04T02:26:00.339Z,99765.27
2019-04-04T02:28:28.911Z,99762.47
2019-04-04T02:30:57.713Z,99751.74
2019-04-04T02:33:32.006Z,99755.41
2019-04-04T02:35:57.936Z,99747.83
2019-04-04T02:38:28.107Z,99740.25
2019-04-04T02:40:56.948Z,99724.07
2019-04-04T02:43:28.371Z,99723.33
2019-04-04T02:45:55.851Z,99706.64
2019-04-04T02:48:24.798Z,99700.27
2019-04-04T02:50:53.839Z,99718.73
2019-04-04T02:53:22.547Z,99725.73
2019-04-04T02:55:51.523Z,99732.36
2019-04-04T02:58:20.541Z,99737.03
2019-04-04T03:00:49.235Z,99742.02
2019-04-04T03:03:17.828Z,99740.38
2019-04-04T03:05:50.752Z,99751.99
2019-04-04T03:08:17.105Z,99757.30
2019-04-04T03:10:48.953Z,99740.95
2019-04-04T03:13:16.655Z,99737.84
2019-04-04T03:15:48.171Z,99744.52
2019-04-04T03:18:15.643Z,99749.56
2019-04-04T03:20:44.319Z,99744.46
2019-04-04T03:23:13.227Z,99736.08
2019-04-04T03:25:41.905Z,99738.46
2019-04-04T03:28:10.481Z,99748.80
2019-04-04T03:30:39.025Z,99752.83
2019-04-04T03:33:07.881Z,99768.09
2019-04-04T03:35:36.539Z,99787.65
2019-04-04T03:38:05.127Z,99796.60
2019-04-04T03:40:33.917Z,99808.21
2019-04-04T03:43:03.008Z,99804.28
2019-04-04T03:45:31.693Z,99799.03
2019-04-04T03:48:00.284Z,99800.11
2019-04-04T03:50:30.582Z,99804.13
2019-04-04T03:52:59.699Z,99813.77
2019-04-04T03:55:28.680Z,99806.18
2019-04-04T03:57:57.481Z,99810.52
2019-04-04T04:00:32.009Z,99808.55
2019-04-04T04:03:00.593Z,99799.64
2019-04-04T04:05:34.549Z,99802.97
2019-04-04T04:08:01.650Z,99809.91
2019-04-04T04:10:33.350Z,99814.25
2019-04-04T04:13:00.573Z,99808.31
2019-04-04T04:15:30.690Z,99800.05
2019-04-04T04:17:59.458Z,99790.66
2019-04-04T04:20:28.047Z,99794.11
2019-04-04T04:22:56.637Z,99791.42
2019-04-04T04:25:25.172Z,99793.02
2019-04-04T04:27:54.208Z,99796.78
2019-04-04T04:30:23.200Z,99811.28
2019-04-04T04:32:55.837Z,99813.41
2019-04-04T04:35:22.312Z,99812.84
2019-04-04T04:37:53.474Z,99817.09
2019-04-04T04:40:21.436Z,99826.13
2019-04-04T04:42:50.728Z,99821.73
2019-04-04T04:45:19.260Z,99818.35
2019-04-04T04:47:47.895Z,99821.96
2019-04-04T04:50:16.580Z,99802.03
2019-04-04T04:52:47.426Z,99773.99
2019-04-04T04:55:16.803Z,99783.54
2019-04-04T04:57:45.617Z,99806.52
2019-04-04T05:00:16.121Z,99825.86
2019-04-04T05:02:44.541Z,99826.62
2019-04-04T05:05:13.718Z,99839.19
2019-04-04T05:07:44.653Z,99834.52
2019-04-04T05:10:15.073Z,99829.02
2019-04-04T05:12:44.313Z,99829.16
2019-04-04T05:15:13.276Z,99827.95
2019-04-04T05:17:45.135Z,99829.44
2019-04-04T05:20:14.344Z,99838.83
2019-04-04T05:22:43.220Z,99824.19
2019-04-04T05:25:11.907Z,99820.33
2019-04-04T05:27:40.603Z,99813.64
2019-04-04T05:30:09.794Z,99817.25
2019-04-04T05:32:38.379Z,99825.47
2019-04-04T05:35:07.539Z,99831.73
2019-04-04T05:37:38.216Z,99834.33
2019-04-04T05:40:09.455Z,99840.37
2019-04-04T05:42:38.155Z,99846.15
2019-04-04T05:45:07.752Z,99839.83
2019-04-04T05:47:36.436Z,99832.47
2019-04-04T05:50:06.657Z,99837.09
2019-04-04T05:52:35.341Z,99830.08
2019-04-04T05:55:10.067Z,99836.02
2019-04-04T05:57:37.000Z,99847.91
2019-04-04T06:00:08.063Z,99840.57
2019-04-04T06:02:36.790Z,99832.92
2019-04-04T06:05:06.813Z,99834.89
2019-04-04T06:07:36.480Z,99846.14
2019-04-04T06:10:07.509Z,99841.46
2019-04-04T06:12:37.669Z,99839.44
2019-04-04T06:15:07.213Z,99835.77
2019-04-04T06:17:38.799Z,99837.91
2019-04-04T06:20:08.018Z,99849.05
2019-04-04T06:22:36.675Z,99849.05
2019-04-04T06:25:06.952Z,99839.06
2019-04-04T06:27:39.876Z,99843.05
2019-04-04T06:30:08.008Z,99835.39
2019-04-04T06:32:38.866Z,99849.30
2019-04-04T06:35:07.385Z,99857.59
2019-04-04T06:37:38.428Z,99853.92
2019-04-04T06:40:08.011Z,99855.84
2019-04-04T06:42:37.164Z,99834.61
2019-04-04T06:45:07.452Z,99829.29
2019-04-04T06:47:36.176Z,99826.64
2019-04-04T06:50:08.201Z,99815.31
2019-04-04T06:52:36.722Z,99802.81
2019-04-04T06:55:06.702Z,99789.95
2019-04-04T06:57:36.589Z,99787.92
2019-04-04T07:00:08.662Z,99794.30
2019-04-04T07:02:37.274Z,99791.70
2019-04-04T07:05:10.744Z,99789.89
2019-04-04T07:07:43.116Z,99790.48
2019-04-04T07:10:10.495Z,99790.15
2019-04-04T07:12:39.176Z,99798.78
2019-04-04T07:15:11.216Z,99808.63
2019-04-04T07:17:40.388Z,99816.11
2019-04-04T07:20:10.375Z,99831.28
2019-04-04T07:22:39.096Z,99839.89
2019-04-04T07:25:07.900Z,99846.53
2019-04-04T07:27:36.483Z,99857.88
2019-04-04T07:30:07.257Z,99864.66
2019-04-04T07:32:35.831Z,99866.09
2019-04-04T07:35:06.956Z,99857.96
2019-04-04T07:37:35.648Z,99847.76
2019-04-04T07:40:06.111Z,99845.56
2019-04-04T07:42:34.677Z,99839.06
2019-04-04T07:45:04.790Z,99838.19
2019-04-04T07:47:33.512Z,99836.66
2019-04-04T07:50:02.100Z,99820.30
2019-04-04T07:52:32.747Z,99821.58
2019-04-04T07:55:01.005Z,99823.41
2019-04-04T07:57:30.307Z,99824.34
2019-04-04T07:59:59.091Z,99813.91
2019-04-04T08:02:27.682Z,99796.42
2019-04-04T08:04:56.297Z,99782.38
2019-04-04T08:07:24.896Z,99780.23
2019-04-04T08:09:53.819Z,99793.97
2019-04-04T08:12:22.477Z,99791.41
2019-04-04T08:14:51.060Z,99795.81
2019-04-04T08:17:19.722Z,99801.25
2019-04-04T08:19:59.173Z,99794.39
2019-04-04T08:22:19.213Z,99810.16
2019-04-04T08:24:47.886Z,99811.19
2019-04-04T08:27:16.599Z,99809.86
2019-04-04T08:29:45.187Z,99810.70
2019-04-04T08:32:15.202Z,99820.42
2019-04-04T08:34:43.811Z,99826.76
2019-04-04T08:37:12.473Z,99840.52
2019-04-04T08:39:41.163Z,99842.16
2019-04-04T08:42:09.881Z,99852.41
2019-04-04T08:44:38.439Z,99864.82
2019-04-04T08:47:07.034Z,99877.64
2019-04-04T08:49:35.774Z,99873.13
2019-04-04T08:52:16.081Z,99871.68
2019-04-04T08:54:35.335Z,99871.16
2019-04-04T08:57:03.933Z,99878.45
2019-04-04T08:59:32.500Z,99882.32
2019-04-04T09:02:01.107Z,99884.55
2019-04-04T09:04:29.691Z,99879.32
2019-04-04T09:06:58.259Z,99873.28
2019-04-04T09:09:26.886Z,99865.91
2019-04-04T09:11:55.667Z,99882.08
2019-04-04T09:14:24.550Z,99877.69
2019-04-04T09:16:53.082Z,99877.80
2019-04-04T09:19:21.862Z,99873.30
2019-04-04T09:21:50.489Z,99877.64
2019-04-04T09:24:19.274Z,99877.70
2019-04-04T09:26:48.208Z,99877.19
2019-04-04T09:29:17.061Z,99872.88
2019-04-04T09:31:45.599Z,99873.06
2019-04-04T09:34:14.644Z,99876.78
2019-04-04T09:36:43.317Z,99870.02
2019-04-04T09:39:12.007Z,99871.69
2019-04-04T09:41:40.697Z,99870.45
2019-04-04T09:44:09.487Z,99880.92
2019-04-04T09:46:38.024Z,99886.87
2019-04-04T09:49:06.598Z,99884.19
2019-04-04T09:51:35.316Z,99871.47
2019-04-04T09:54:03.925Z,99867.37
2019-04-04T09:56:32.728Z,99864.52
2019-04-04T09:59:01.428Z,99862.26
2019-04-04T10:01:30.024Z,99866.14
2019-04-04T10:03:58.572Z,99858.36
2019-04-04T10:06:27.114Z,99864.30
2019-04-04T10:08:55.844Z,99860.20
2019-04-04T10:11:24.531Z,99857.75
2019-04-04T10:13:53.106Z,99859.66
2019-04-04T10:16:21.629Z,99852.69
2019-04-04T10:18:50.427Z,99853.30
2019-04-04T10:21:18.988Z,99846.94
2019-04-04T10:23:47.713Z,99852.17
2019-04-04T10:26:16.585Z,99861.52
2019-04-04T10:28:45.176Z,99871.86
2019-04-04T10:31:13.854Z,99876.78
2019-04-04T10:33:43.014Z,99871.03
2019-04-04T10:36:11.575Z,99852.75
2019-04-04T10:38:40.117Z,99835.07
2019-04-04T10:41:08.829Z,99846.05
2019-04-04T10:43:37.413Z,99854.56
2019-04-04T10:46:06.104Z,99859.26
2019-04-04T10:48:35.013Z,99863.45
2019-04-04T10:51:03.785Z,99873.52
2019-04-04T10:53:32.321Z,99864.91
2019-04-04T10:56:01.063Z,99871.37
2019-04-04T10:58:31.058Z,99866.27
2019-04-04T11:00:59.815Z,99864.70
2019-04-04T11:03:28.397Z,99860.90
2019-04-04T11:05:56.977Z,99853.39
2019-04-04T11:08:25.583Z,99851.80
2019-04-04T11:10:54.159Z,99854.73
2019-04-04T11:13:32.939Z,99847.77
2019-04-04T11:15:53.184Z,99849.37
2019-04-04T11:18:21.864Z,99838.80
2019-04-04T11:20:50.662Z,99842.39
2019-04-04T11:23:19.243Z,99842.88
2019-04-04T11:25:48.445Z,99845.12
2019-04-04T11:28:17.146Z,99851.98
2019-04-04T11:30:45.765Z,99851.98
2019-04-04T11:33:15.129Z,99860.60
2019-04-04T11:35:43.820Z,99857.23
2019-04-04T11:38:12.505Z,99858.27
2019-04-04T11:40:41.195Z,99868.61
2019-04-04T11:43:10.086Z,99870.78
2019-04-04T11:45:38.637Z,99882.19
2019-04-04T11:48:07.250Z,99885.47
2019-04-04T11:50:35.851Z,99881.16
2019-04-04T11:53:04.826Z,99881.35
2019-04-04T11:55:34.252Z,99894.33
2019-04-04T11:58:03.026Z,99889.80
2019-04-04T12:00:33.251Z,99892.59
2019-04-04T12:03:02.063Z,99889.31
2019-04-04T12:05:30.611Z,99886.03
2019-04-04T12:07:59.498Z,99892.11
2019-04-04T12:10:28.184Z,99902.79
2019-04-04T12:12:58.563Z,99900.12
2019-04-04T12:15:27.197Z,99910.08
2019-04-04T12:17:55.939Z,99909.47
2019-04-04T12:20:24.579Z,99909.69
2019-04-04T12:22:53.115Z,99910.30
2019-04-04T12:25:21.676Z,99898.06
2019-04-04T12:27:50.434Z,99903.59
2019-04-04T12:30:20.675Z,99909.45
2019-04-04T12:32:49.953Z,99909.66
2019-04-04T12:35:18.633Z,99907.28
2019-04-04T12:37:47.236Z,99903.39
2019-04-04T12:40:20.748Z,99897.39
2019-04-04T12:42:46.714Z,99890.62
2019-04-04T12:45:15.706Z,99887.73
2019-04-04T12:47:44.626Z,99893.18
2019-04-04T12:50:15.161Z,99885.72
2019-04-04T12:52:43.856Z,99891.02
2019-04-04T12:55:20.208Z,99888.83
2019-04-04T12:57:48.767Z,99884.09
2019-04-04T13:00:17.681Z,99892.11
2019-04-04T13:02:46.883Z,99890.54
2019-04-04T13:05:16.675Z,99886.94
2019-04-04T13:07:45.274Z,99872.53
2019-04-04T13:10:14.679Z,99874.17
2019-04-04T13:12:43.638Z,99873.52
2019-04-04T13:15:12.977Z,99880.27
2019-04-04T13:17:41.657Z,99894.55
2019-04-04T13:20:10.776Z,99893.81
2019-04-04T13:22:39.496Z,99883.72
2019-04-04T13:25:09.467Z,99882.98
2019-04-04T13:27:38.282Z,99893.55
2019-04-04T13:30:09.908Z,99892.89
2019-04-04T13:32:38.998Z,99892.27
2019-04-04T13:35:07.927Z,99894.50
2019-04-04T13:37:36.581Z,99899.12
2019-04-04T13:40:07.250Z,99900.59
2019-04-04T13:42:35.896Z,99906.41
2019-04-04T13:45:06.528Z,99903.91
2019-04-04T13:47:38.147Z,99912.53
2019-04-04T13:50:07.466Z,99912.23
2019-04-04T13:52:37.401Z,99908.05
2019-04-04T13:55:07.312Z,99913.53
2019-04-04T13:57:39.430Z,99912.93
2019-04-04T14:00:09.293Z,99914.14
2019-04-04T14:02:38.297Z,99914.41
2019-04-04T14:05:10.566Z,99911.06
2019-04-04T14:07:38.424Z,99904.23
2019-04-04T14:10:07.826Z,99896.67
2019-04-04T14:12:36.450Z,99898.55
2019-04-04T14:15:08.680Z,99892.97
2019-04-04T14:17:37.305Z,99887.05
2019-04-04T14:20:09.544Z,99883.36
2019-04-04T14:22:38.222Z,99880.83
2019-04-04T14:25:07.574Z,99895.95
2019-04-04T14:27:36.134Z,99888.72
2019-04-04T14:30:09.320Z,99892.70
2019-04-04T14:32:37.878Z,99888.05
2019-04-04T14:35:09.022Z,99885.00
2019-04-04T14:37:37.718Z,99884.61
2019-04-04T14:40:11.720Z,99885.37
2019-04-04T14:42:40.406Z,99887.63
2019-04-04T14:45:09.575Z,99882.10
2019-04-04T14:47:38.298Z,99884.72
2019-04-04T14:50:08.977Z,99887.80
2019-04-04T14:52:39.354Z,99889.08
2019-04-04T14:55:08.228Z,99885.19
2019-04-04T14:57:36.838Z,99873.02
2019-04-04T15:00:11.073Z,99870.48
2019-04-04T15:02:39.726Z,99861.62
2019-04-04T15:05:08.923Z,99860.92
2019-04-04T15:07:37.625Z,99853.22
2019-04-04T15:10:06.700Z,99854.38
2019-04-04T15:12:35.533Z,99853.66
2019-04-04T15:15:05.311Z,99862.19
2019-04-04T15:17:34.106Z,99861.00
2019-04-04T15:20:03.013Z,99859.56
2019-04-04T15:22:32.125Z,99851.02
2019-04-04T15:25:00.981Z,99862.84
2019-04-04T15:27:29.950Z,99862.35
2019-04-04T15:29:58.972Z,99857.94
2019-04-04T15:32:27.887Z,99856.53
2019-04-04T15:34:56.538Z,99860.45
2019-04-04T15:37:25.200Z,99865.47
2019-04-04T15:39:53.910Z,99867.17
2019-04-04T15:42:22.520Z,99867.01
2019-04-04T15:44:51.181Z,99874.33
2019-04-04T15:47:19.868Z,99865.88
2019-04-04T15:49:48.453Z,99866.11
2019-04-04T15:52:16.987Z,99869.30
2019-04-04T15:54:45.572Z,99875.08
2019-04-04T15:57:14.209Z,99875.81
2019-04-04T15:59:42.787Z,99871.37
2019-04-04T16:02:12.247Z,99868.36
2019-04-04T16:04:40.994Z,99873.74
2019-04-04T16:07:10.201Z,99893.44
2019-04-04T16:09:38.919Z,99885.46
2019-04-04T16:12:07.499Z,99888.53
2019-04-04T16:14:36.132Z,99886.84
2019-04-04T16:17:04.851Z,99884.16
2019-04-04T16:19:33.510Z,99880.94
2019-04-04T16:22:02.146Z,99885.55
2019-04-04T16:24:32.002Z,99893.06
2019-04-04T16:27:00.703Z,99900.74
2019-04-04T16:29:29.483Z,99899.41
2019-04-04T16:31:58.198Z,99907.31
2019-04-04T16:34:26.747Z,99910.13
2019-04-04T16:36:55.437Z,99914.11
2019-04-04T16:39:24.118Z,99915.41
2019-04-04T16:42:01.981Z,99914.64
2019-04-04T16:44:24.469Z,99921.23
2019-04-04T16:46:54.684Z,99925.13
2019-04-04T16:49:23.371Z,99922.11
2019-04-04T16:51:52.120Z,99928.88
2019-04-04T16:54:20.727Z,99924.73
2019-04-04T16:56:49.478Z,99920.06
2019-04-04T16:59:18.115Z,99919.33
2019-04-04T17:01:46.860Z,99917.66
2019-04-04T17:04:15.486Z,99937.89
2019-04-04T17:06:44.478Z,99935.03
2019-04-04T17:09:13.380Z,99939.37
2019-04-04T17:11:42.780Z,99951.70
2019-04-04T17:14:11.563Z,99956.28
2019-04-04T17:16:40.275Z,99970.57
2019-04-04T17:19:09.043Z,99977.69
2019-04-04T17:21:45.866Z,99976.78
2019-04-04T17:24:14.501Z,99978.02
2019-04-04T17:26:43.289Z,99991.98
2019-04-04T17:29:12.179Z,99994.36
2019-04-04T17:31:41.126Z,100000.73
2019-04-04T17:34:09.939Z,100000.92
2019-04-04T17:36:39.524Z,100006.45
2019-04-04T17:39:09.139Z,100010.95
2019-04-04T17:41:38.145Z,100012.81
2019-04-04T17:44:09.110Z,100022.33
2019-04-04T17:46:39.244Z,100017.48
2019-04-04T17:49:07.809Z,100024.64
2019-04-04T17:51:36.626Z,100032.09
2019-04-04T17:54:05.996Z,100043.87
2019-04-04T17:56:35.069Z,100035.02
2019-04-04T17:59:03.648Z,100040.75
2019-04-04T18:01:34.360Z,100037.86
2019-04-04T18:04:02.800Z,100038.25
2019-04-04T18:06:31.598Z,100047.03
2019-04-04T18:09:00.143Z,100058.30
2019-04-04T18:11:28.864Z,100058.27
2019-04-04T18:13:58.677Z,100065.01
2019-04-04T18:16:27.369Z,100075.73
2019-04-04T18:18:55.897Z,100080.13
2019-04-04T18:21:24.767Z,100086.23
2019-04-04T18:23:53.313Z,100094.29
2019-04-04T18:26:22.204Z,100102.38
2019-04-04T18:28:50.776Z,100105.75
2019-04-04T18:31:19.394Z,100116.47
2019-04-04T18:33:48.258Z,100122.17
2019-04-04T18:36:17.294Z,100120.91
2019-04-04T18:38:46.083Z,100122.31
2019-04-04T18:41:14.630Z,100122.70
2019-04-04T18:43:43.584Z,100129.41
2019-04-04T18:46:12.240Z,100128.78
2019-04-04T18:48:40.904Z,100126.82
2019-04-04T18:51:09.591Z,100128.84
2019-04-04T18:53:38.185Z,100121.59
2019-04-04T18:56:06.755Z,100122.30
2019-04-04T18:58:35.445Z,100114.48
2019-04-04T19:01:04.353Z,100120.50
2019-04-04T19:03:32.909Z,100114.76
2019-04-04T19:06:01.646Z,100111.47
2019-04-04T19:08:30.597Z,100103.86
2019-04-04T19:10:59.160Z,100107.91
2019-04-04T19:13:27.801Z,100101.33
2019-04-04T19:15:56.648Z,100108.04
2019-04-04T19:18:25.248Z,100108.95
2019-04-04T19:20:54.026Z,100101.86
2019-04-04T19:23:22.580Z,100102.24
2019-04-04T19:25:51.295Z,100092.16
2019-04-04T19:28:20.396Z,100091.20
2019-04-04T19:30:49.083Z,100092.11
2019-04-04T19:33:17.756Z,100086.53
2019-04-04T19:35:46.569Z,100096.53
2019-04-04T19:38:15.446Z,100100.58
2019-04-04T19:40:44.444Z,100095.63
2019-04-04T19:43:18.317Z,100090.72
2019-04-04T19:45:43.419Z,100094.77
2019-04-04T19:48:12.016Z,100091.64
2019-04-04T19:50:40.581Z,100095.52
2019-04-04T19:53:09.195Z,100099.88
2019-04-04T19:55:39.206Z,100101.58
2019-04-04T19:58:08.169Z,100100.30
2019-04-04T20:00:36.762Z,100105.50
2019-04-04T20:03:06.330Z,100104.02
2019-04-04T20:05:35.114Z,100105.69
2019-04-04T20:08:03.695Z,100111.09
2019-04-04T20:10:32.398Z,100109.12
2019-04-04T20:13:01.155Z,100106.52
2019-04-04T20:15:29.743Z,100112.68
2019-04-04T20:17:58.315Z,100103.27
2019-04-04T20:20:27.109Z,100103.31
2019-04-04T20:22:55.895Z,100099.21
2019-04-04T20:25:24.473Z,100096.41
2019-04-04T20:27:54.922Z,100096.45
2019-04-04T20:30:26.459Z,100092.14
2019-04-04T20:32:55.055Z,100087.52
2019-04-04T20:35:26.701Z,100092.19
2019-04-04T20:37:54.223Z,100086.27
2019-04-04T20:40:23.399Z,100086.44
2019-04-04T20:42:52.470Z,100082.98
2019-04-04T20:45:21.149Z,100082.34
2019-04-04T20:47:49.818Z,100092.64
2019-04-04T20:50:18.612Z,100088.02
2019-04-04T20:52:47.177Z,100091.67
2019-04-04T20:55:15.777Z,100091.67
2019-04-04T20:57:44.882Z,100103.30
2019-04-04T21:00:13.759Z,100100.33
2019-04-04T21:02:42.353Z,100100.01
2019-04-04T21:05:11.344Z,100096.71
2019-04-04T21:07:40.239Z,100106.69
2019-04-04T21:10:09.427Z,100103.39
2019-04-04T21:12:38.010Z,100110.23
2019-04-04T21:15:07.692Z,100109.39
2019-04-04T21:17:36.338Z,100105.08
2019-04-04T21:20:07.450Z,100114.57
2019-04-04T21:22:36.049Z,100117.39
2019-04-04T21:25:06.157Z,100122.06
2019-04-04T21:27:35.062Z,100134.52
2019-04-04T21:30:05.484Z,100129.38
2019-04-04T21:32:34.067Z,100130.70
2019-04-04T21:35:02.755Z,100123.11
2019-04-04T21:37:31.334Z,100117.88
2019-04-04T21:39:59.912Z,100118.72
2019-04-04T21:42:28.500Z,100116.62
2019-04-04T21:44:57.081Z,100124.94
2019-04-04T21:47:25.623Z,100132.25
2019-04-04T21:49:54.663Z,100137.44
2019-04-04T21:52:23.243Z,100137.60
2019-04-04T21:54:51.837Z,100133.81
2019-04-04T21:57:20.713Z,100139.61
2019-04-04T21:59:49.299Z,100158.83
2019-04-04T22:02:17.885Z,100145.87
2019-04-04T22:04:46.568Z,100146.53
2019-04-04T22:07:15.355Z,100146.20
2019-04-04T22:09:43.946Z,100146.20
2019-04-04T22:12:12.835Z,100142.75
2019-04-04T22:14:41.576Z,100146.20
2019-04-04T22:17:10.206Z,100145.20
2019-04-04T22:19:38.951Z,100149.50
2019-04-04T22:22:07.679Z,100170.05
2019-04-04T22:24:36.371Z,100158.76
2019-04-04T22:27:05.154Z,100171.98
2019-04-04T22:29:33.747Z,100173.97
2019-04-04T22:32:02.738Z,100173.61
2019-04-04T22:34:31.834Z,100181.50
2019-04-04T22:37:00.515Z,100189.75
2019-04-04T22:39:29.201Z,100188.06
2019-04-04T22:41:57.784Z,100197.31
2019-04-04T22:44:34.555Z,100197.28
2019-04-04T22:46:56.695Z,100199.58
2019-04-04T22:49:25.379Z,100193.91
2019-04-04T22:51:53.965Z,100189.56
2019-04-04T22:54:22.559Z,100201.15
2019-04-04T22:56:51.541Z,100197.81
2019-04-04T22:59:20.090Z,100200.91
2019-04-04T23:01:48.710Z,100200.03
2019-04-04T23:04:17.398Z,100193.67
2019-04-04T23:06:45.981Z,100202.73
2019-04-04T23:09:14.583Z,100197.25
2019-04-04T23:11:43.250Z,100195.72
2019-04-04T23:14:11.788Z,100196.52
2019-04-04T23:16:40.419Z,100198.98
2019-04-04T23:19:09.327Z,100201.47
2019-04-04T23:21:37.893Z,100196.80
2019-04-04T23:24:06.488Z,100198.77
2019-04-04T23:26:35.067Z,100192.73
2019-04-04T23:29:03.646Z,100187.74
2019-04-04T23:31:32.227Z,100189.73
2019-04-04T23:34:00.814Z,100178.95
2019-04-04T23:36:35.284Z,100178.75
2019-04-04T23:38:59.723Z,100180.34
2019-04-04T23:41:28.511Z,100187.63
2019-04-04T23:43:57.401Z,100199.22
2019-04-04T23:46:26.088Z,100206.51
2019-04-04T23:48:54.778Z,100214.48
2019-04-04T23:51:23.309Z,100225.44
2019-04-04T23:53:51.946Z,100217.14
2019-04-04T23:56:20.557Z,100219.80
2019-04-04T23:58:49.117Z,100217.46
